Main page
METAR-TAF:

METAR-TAF

Airports :

Lleida-Alguaire

Lleida, Spain

latitude: 41-43-40N, longitude: 000-32-09E, elevation: 350 m

Current weather observation

The report was made 35 minutes ago, at 18:30 UTC
Wind 1 kt from variable directions
Temperature 10°C
Humidity 93%
Pressure 1014 hPa
Visibility: 9000 m
Few clouds at a height of 5800 ft

METAR: LEDA 211830Z AUTO VRB01KT 9000 FEW058 10/09 Q1014

Time: 20:05 (19:05 UTC)


TAF: missing

Weather observations and forecasts of more than 4000 airports (METAR and TAF reports).

The available stations are represented by yellow and red dots on the map.

Hover mouse over dot to see the name of the station.

Then click to see weather observations and forecasts.

To change the map : click on the green buttons with a black cross to zoom in, on the green button with a dash to zoom out, or on the green arrows for adjacent maps.


METAR-TAF: